TimeCDT,TemperatureF,Dew PointF,Humidity,Sea Level PressureIn,VisibilityMPH,Wind Direction,Wind SpeedMPH,Gust SpeedMPH,PrecipitationIn,Events,Conditions,WindDirDegrees,DateUTC
12:15 AM,82.4,60.8,48,29.94,10.0,West,4.6,-,N/A,,Clear,280,2013-09-04 05:15:00
12:35 AM,82.4,60.8,48,29.94,10.0,Calm,Calm,-,N/A,,Clear,0,2013-09-04 05:35:00
12:55 AM,82.4,60.8,48,29.94,10.0,WSW,3.5,-,N/A,,Clear,250,2013-09-04 05:55:00
1:15 AM,80.6,59.0,48,29.94,10.0,Calm,Calm,-,N/A,,Clear,0,2013-09-04 06:15:00
1:35 AM,80.6,60.8,51,29.94,10.0,SSW,3.5,-,N/A,,Clear,210,2013-09-04 06:35:00
1:55 AM,80.6,59.0,48,29.95,10.0,Calm,Calm,-,N/A,,Clear,0,2013-09-04 06:55:00
2:15 AM,80.6,60.8,51,29.96,10.0,South,6.9,-,N/A,,Clear,190,2013-09-04 07:15:00
2:35 AM,80.6,62.6,54,29.95,10.0,South,11.5,-,N/A,,Clear,180,2013-09-04 07:35:00
2:55 AM,82.4,64.4,54,29.96,10.0,South,9.2,-,N/A,,Clear,190,2013-09-04 07:55:00
3:15 AM,80.6,64.4,58,29.96,10.0,SSW,8.1,-,N/A,,Clear,210,2013-09-04 08:15:00
3:35 AM,80.6,64.4,58,29.95,10.0,SSW,8.1,-,N/A,,Clear,200,2013-09-04 08:35:00
3:55 AM,80.6,64.4,58,29.96,10.0,SSW,5.8,-,N/A,,Clear,210,2013-09-04 08:55:00
4:15 AM,80.6,64.4,58,29.96,10.0,SW,8.1,-,N/A,,Clear,220,2013-09-04 09:15:00
4:35 AM,80.6,64.4,58,29.96,10.0,SW,5.8,-,N/A,,Clear,230,2013-09-04 09:35:00
4:55 AM,80.6,64.4,58,29.96,10.0,WSW,6.9,-,N/A,,Clear,240,2013-09-04 09:55:00
5:15 AM,80.6,64.4,58,29.96,10.0,WSW,5.8,-,N/A,,Clear,240,2013-09-04 10:15:00
5:35 AM,78.8,62.6,57,29.97,10.0,SW,4.6,-,N/A,,Clear,220,2013-09-04 10:35:00
5:55 AM,78.8,62.6,57,29.97,10.0,Calm,Calm,-,N/A,,Clear,0,2013-09-04 10:55:00
6:15 AM,77.0,62.6,61,29.98,10.0,Calm,Calm,-,N/A,,Clear,0,2013-09-04 11:15:00
6:35 AM,77.0,62.6,61,29.99,10.0,Calm,Calm,-,N/A,,Clear,0,2013-09-04 11:35:00
6:55 AM,75.2,60.8,61,29.99,10.0,Calm,Calm,-,N/A,,Clear,0,2013-09-04 11:55:00
7:15 AM,75.2,62.6,65,30.00,10.0,East,3.5,-,N/A,,Clear,80,2013-09-04 12:15:00
7:35 AM,75.2,62.6,65,30.00,10.0,NNE,5.8,-,N/A,,Clear,30,2013-09-04 12:35:00
7:55 AM,75.2,64.4,69,30.01,10.0,NNE,4.6,-,N/A,,Clear,20,2013-09-04 12:55:00
8:15 AM,78.8,64.4,61,30.02,10.0,NE,4.6,-,N/A,,Clear,50,2013-09-04 13:15:00
8:35 AM,80.6,64.4,58,30.03,10.0,NE,5.8,-,N/A,,Clear,50,2013-09-04 13:35:00
8:55 AM,82.4,66.2,58,30.04,10.0,ENE,9.2,-,N/A,,Clear,60,2013-09-04 13:55:00
9:15 AM,82.4,66.2,58,30.04,10.0,ENE,6.9,-,N/A,,Clear,60,2013-09-04 14:15:00
9:35 AM,84.2,66.2,55,30.04,10.0,Calm,Calm,-,N/A,,Clear,0,2013-09-04 14:35:00
9:55 AM,86.0,66.2,51,30.05,10.0,Calm,Calm,-,N/A,,Clear,0,2013-09-04 14:55:00
10:15 AM,86.0,66.2,51,30.05,10.0,NNE,4.6,-,N/A,,Clear,20,2013-09-04 15:15:00
10:35 AM,89.6,66.2,46,30.05,10.0,Calm,Calm,-,N/A,,Clear,0,2013-09-04 15:35:00
10:55 AM,89.6,66.2,46,30.04,10.0,Calm,Calm,-,N/A,,Clear,0,2013-09-04 15:55:00
11:15 AM,91.4,66.2,43,30.04,10.0,Calm,Calm,-,N/A,,Clear,0,2013-09-04 16:15:00
11:35 AM,93.2,66.2,41,30.04,10.0,NNE,3.5,-,N/A,,Clear,30,2013-09-04 16:35:00
11:55 AM,93.2,66.2,41,30.04,10.0,East,5.8,-,N/A,,Clear,90,2013-09-04 16:55:00
12:15 PM,95.0,66.2,39,30.03,10.0,ESE,8.1,-,N/A,,Clear,120,2013-09-04 17:15:00
12:35 PM,98.6,66.2,35,30.02,10.0,ENE,3.5,-,N/A,,Clear,70,2013-09-04 17:35:00
12:55 PM,98.6,66.2,35,30.02,10.0,ESE,4.6,-,N/A,,Clear,120,2013-09-04 17:55:00
1:15 PM,98.6,66.2,35,30.01,10.0,ESE,4.6,-,N/A,,Clear,120,2013-09-04 18:15:00
1:35 PM,100.4,66.2,33,30.01,10.0,East,9.2,-,N/A,,Clear,90,2013-09-04 18:35:00
1:55 PM,100.4,66.2,33,30.00,10.0,South,8.1,-,N/A,,Clear,180,2013-09-04 18:55:00
2:15 PM,100.4,66.2,33,29.99,10.0,Calm,Calm,-,N/A,,Clear,0,2013-09-04 19:15:00
2:35 PM,100.4,66.2,33,29.99,10.0,East,11.5,17.3,N/A,,Clear,100,2013-09-04 19:35:00
2:55 PM,100.4,64.4,31,29.97,10.0,ENE,10.4,16.1,N/A,,Clear,60,2013-09-04 19:55:00
3:15 PM,100.4,64.4,31,29.96,10.0,ENE,5.8,-,N/A,,Clear,70,2013-09-04 20:15:00
3:35 PM,100.4,64.4,31,29.95,10.0,South,6.9,-,N/A,,Clear,170,2013-09-04 20:35:00
3:55 PM,102.2,64.4,29,29.94,10.0,South,9.2,-,N/A,,Partly Cloudy,180,2013-09-04 20:55:00
4:15 PM,104.0,64.4,27,29.93,10.0,East,9.2,-,N/A,,Clear,90,2013-09-04 21:15:00
4:35 PM,102.2,64.4,29,29.93,10.0,ESE,16.1,-,N/A,,Clear,110,2013-09-04 21:35:00
4:55 PM,102.2,64.4,29,29.92,10.0,ESE,16.1,-,N/A,,Clear,120,2013-09-04 21:55:00
5:15 PM,102.2,62.6,27,29.93,10.0,East,11.5,18.4,N/A,,Clear,90,2013-09-04 22:15:00
5:35 PM,98.6,62.6,30,29.93,10.0,ENE,9.2,-,N/A,,Clear,70,2013-09-04 22:35:00
5:55 PM,98.6,60.8,29,29.92,10.0,East,9.2,-,N/A,,Clear,80,2013-09-04 22:55:00
6:15 PM,100.4,59.0,25,29.92,10.0,ENE,6.9,-,N/A,,Clear,70,2013-09-04 23:15:00
6:35 PM,98.6,59.0,27,29.93,10.0,ESE,9.2,-,N/A,,Clear,110,2013-09-04 23:35:00
6:55 PM,96.8,57.2,27,29.93,10.0,East,3.5,-,N/A,,Clear,90,2013-09-04 23:55:00
7:15 PM,96.8,57.2,27,29.94,10.0,ESE,3.5,-,N/A,,Clear,110,2013-09-05 00:15:00
7:35 PM,96.8,57.2,27,29.94,10.0,SE,4.6,-,N/A,,Clear,130,2013-09-05 00:35:00
7:55 PM,93.2,57.2,30,29.95,10.0,SE,3.5,-,N/A,,Clear,140,2013-09-05 00:55:00
8:15 PM,91.4,57.2,31,29.96,10.0,Calm,Calm,-,N/A,,Clear,0,2013-09-05 01:15:00
8:35 PM,89.6,57.2,33,29.97,10.0,SSE,9.2,-,N/A,,Clear,150,2013-09-05 01:35:00
8:55 PM,89.6,64.4,43,29.98,10.0,SSE,11.5,-,N/A,,Clear,150,2013-09-05 01:55:00
9:15 PM,89.6,64.4,43,30.00,10.0,SE,12.7,-,N/A,,Clear,130,2013-09-05 02:15:00
9:35 PM,87.8,64.4,46,30.02,10.0,East,17.3,-,N/A,,Clear,100,2013-09-05 02:35:00
9:55 PM,84.2,62.6,48,30.02,10.0,ESE,17.3,21.9,N/A,,Clear,110,2013-09-05 02:55:00
10:15 PM,84.2,62.6,48,30.02,10.0,ESE,12.7,-,N/A,,Clear,110,2013-09-05 03:15:00
10:35 PM,87.8,62.6,43,30.03,10.0,SE,15.0,-,N/A,,Partly Cloudy,130,2013-09-05 03:35:00
10:55 PM,89.6,64.4,43,30.03,10.0,SSE,17.3,-,N/A,,Mostly Cloudy,160,2013-09-05 03:55:00
11:15 PM,87.8,64.4,46,30.04,10.0,South,18.4,-,N/A,,Partly Cloudy,180,2013-09-05 04:15:00
11:35 PM,86.0,64.4,48,30.04,10.0,South,16.1,24.2,N/A,,Partly Cloudy,190,2013-09-05 04:35:00
11:55 PM,84.2,64.4,51,30.05,10.0,South,17.3,21.9,N/A,,Scattered Clouds,190,2013-09-05 04:55:00